Hobbema, Canada
Current Conditions -  °F | °C
As of 5:00 AM on Wednesday 26 Nov 2014 (Local Time) from CYEG Reporting Station
Light Snow Light Snow  
Wind Chill:   Ceiling: 2300
Heat Index: 16°   Visibility: 10mi
Dew Point: 12°   Wind: 8mph
Humidity: 86%   Direction: 150°SSE
Pressure: 30.17"   Gusts: NA
Location:  52.83°N, 113.45°W
Report Text: CYEG 261200Z 15007KT 10SM -SN SCT018 OVC023 M09/M11 A3017 RMK SC3SC5 SLP267
Loading
Personal Weather Stations






























Interactive Weather Map New forecast layout! Learn more

10-Day Weather Forecast

Advertisements
Track Severe Weather on mobile